sensor_id;sensor_type;location;lat;lon;timestamp;pressure;altitude;pressure_sealevel;temperature;humidity
45040;BME280;30778;53.574;7.770;2023-09-08T00:01:24;101940.38;;;17.41;44.11
45040;BME280;30778;53.574;7.770;2023-09-08T00:03:50;101937.47;;;17.48;43.89
45040;BME280;30778;53.574;7.770;2023-09-08T00:06:15;101938.50;;;17.43;43.81
45040;BME280;30778;53.574;7.770;2023-09-08T00:08:41;101929.09;;;17.55;43.96
45040;BME280;30778;53.574;7.770;2023-09-08T00:11:08;101923.75;;;17.39;44.20
45040;BME280;30778;53.574;7.770;2023-09-08T00:13:33;101922.72;;;17.42;43.84
45040;BME280;30778;53.574;7.770;2023-09-08T00:15:59;101926.31;;;17.41;43.99
45040;BME280;30778;53.574;7.770;2023-09-08T00:18:24;101917.19;;;17.47;43.75
45040;BME280;30778;53.574;7.770;2023-09-08T00:20:50;101908.41;;;17.46;43.57
45040;BME280;30778;53.574;7.770;2023-09-08T00:23:15;101915.44;;;17.47;43.49
45040;BME280;30778;53.574;7.770;2023-09-08T00:25:41;101910.00;;;17.33;43.70
45040;BME280;30778;53.574;7.770;2023-09-08T00:28:06;101917.16;;;17.13;44.22
45040;BME280;30778;53.574;7.770;2023-09-08T00:30:32;101912.97;;;17.27;43.77
45040;BME280;30778;53.574;7.770;2023-09-08T00:32:58;101905.97;;;17.26;43.94
45040;BME280;30778;53.574;7.770;2023-09-08T00:35:23;101914.50;;;17.31;43.80
45040;BME280;30778;53.574;7.770;2023-09-08T00:37:49;101910.59;;;17.38;43.55
45040;BME280;30778;53.574;7.770;2023-09-08T00:40:14;101911.25;;;17.26;43.95
45040;BME280;30778;53.574;7.770;2023-09-08T00:42:40;101921.66;;;17.29;43.78
45040;BME280;30778;53.574;7.770;2023-09-08T00:45:06;101914.69;;;17.28;43.76
45040;BME280;30778;53.574;7.770;2023-09-08T00:47:31;101923.22;;;17.33;43.52
45040;BME280;30778;53.574;7.770;2023-09-08T00:49:57;101915.47;;;17.30;43.86
45040;BME280;30778;53.574;7.770;2023-09-08T00:52:23;101917.47;;;17.24;43.99
45040;BME280;30778;53.574;7.770;2023-09-08T00:54:49;101912.09;;;17.26;43.64
45040;BME280;30778;53.574;7.770;2023-09-08T00:57:14;101914.28;;;17.18;44.30
45040;BME280;30778;53.574;7.770;2023-09-08T00:59:41;101920.59;;;17.15;44.02
45040;BME280;30778;53.574;7.770;2023-09-08T01:02:08;101925.88;;;17.15;44.25
45040;BME280;30778;53.574;7.770;2023-09-08T01:04:34;101920.91;;;17.09;44.34
45040;BME280;30778;53.574;7.770;2023-09-08T01:07:01;101921.28;;;17.01;44.28
45040;BME280;30778;53.574;7.770;2023-09-08T01:09:27;101919.84;;;16.96;44.69
45040;BME280;30778;53.574;7.770;2023-09-08T01:11:53;101914.06;;;16.88;44.60
45040;BME280;30778;53.574;7.770;2023-09-08T01:14:20;101908.63;;;16.73;45.09
45040;BME280;30778;53.574;7.770;2023-09-08T01:16:46;101909.25;;;16.78;45.35
45040;BME280;30778;53.574;7.770;2023-09-08T01:19:13;101910.31;;;16.74;45.45
45040;BME280;30778;53.574;7.770;2023-09-08T01:26:57;101912.94;;;16.74;45.38
45040;BME280;30778;53.574;7.770;2023-09-08T01:29:23;101919.31;;;16.70;45.52
45040;BME280;30778;53.574;7.770;2023-09-08T01:31:50;101917.75;;;16.66;45.57
45040;BME280;30778;53.574;7.770;2023-09-08T01:34:16;101910.06;;;16.61;45.70
45040;BME280;30778;53.574;7.770;2023-09-08T01:36:42;101907.16;;;16.49;45.84
45040;BME280;30778;53.574;7.770;2023-09-08T01:39:07;101906.06;;;16.53;46.05
45040;BME280;30778;53.574;7.770;2023-09-08T01:41:33;101913.53;;;16.45;46.04
45040;BME280;30778;53.574;7.770;2023-09-08T01:43:59;101908.88;;;16.50;45.99
45040;BME280;30778;53.574;7.770;2023-09-08T01:46:25;101907.47;;;16.42;46.13
45040;BME280;30778;53.574;7.770;2023-09-08T01:48:50;101908.25;;;16.45;45.95
45040;BME280;30778;53.574;7.770;2023-09-08T01:51:16;101918.81;;;16.45;45.79
45040;BME280;30778;53.574;7.770;2023-09-08T01:53:41;101909.56;;;16.36;46.34
45040;BME280;30778;53.574;7.770;2023-09-08T01:56:09;101907.28;;;16.28;46.39
45040;BME280;30778;53.574;7.770;2023-09-08T01:58:34;101903.84;;;16.26;46.42
45040;BME280;30778;53.574;7.770;2023-09-08T02:01:02;101897.31;;;16.16;46.85
45040;BME280;30778;53.574;7.770;2023-09-08T02:03:33;101900.97;;;16.13;46.67
45040;BME280;30778;53.574;7.770;2023-09-08T02:05:59;101897.59;;;16.10;47.14
45040;BME280;30778;53.574;7.770;2023-09-08T02:08:25;101894.19;;;16.08;46.82
45040;BME280;30778;53.574;7.770;2023-09-08T02:10:51;101900.31;;;16.08;46.99
45040;BME280;30778;53.574;7.770;2023-09-08T02:13:16;101895.91;;;16.09;47.03
45040;BME280;30778;53.574;7.770;2023-09-08T02:15:42;101901.31;;;16.06;47.02
45040;BME280;30778;53.574;7.770;2023-09-08T02:18:08;101903.44;;;15.97;47.51
45040;BME280;30778;53.574;7.770;2023-09-08T02:20:34;101893.44;;;15.85;47.88
45040;BME280;30778;53.574;7.770;2023-09-08T02:23:05;101893.66;;;15.80;47.82
45040;BME280;30778;53.574;7.770;2023-09-08T02:25:32;101894.16;;;15.70;48.12
45040;BME280;30778;53.574;7.770;2023-09-08T02:27:57;101898.78;;;15.65;48.51
45040;BME280;30778;53.574;7.770;2023-09-08T02:30:23;101894.84;;;15.54;49.09
45040;BME280;30778;53.574;7.770;2023-09-08T02:32:50;101903.03;;;15.48;48.84
45040;BME280;30778;53.574;7.770;2023-09-08T02:35:17;101894.34;;;15.46;49.07
45040;BME280;30778;53.574;7.770;2023-09-08T02:37:42;101895.72;;;15.34;49.52
45040;BME280;30778;53.574;7.770;2023-09-08T02:40:08;101892.38;;;15.31;49.33
45040;BME280;30778;53.574;7.770;2023-09-08T02:42:35;101891.97;;;15.40;49.24
45040;BME280;30778;53.574;7.770;2023-09-08T02:45:00;101889.34;;;15.40;49.28
45040;BME280;30778;53.574;7.770;2023-09-08T02:47:26;101892.38;;;15.31;49.27
45040;BME280;30778;53.574;7.770;2023-09-08T02:49:51;101891.03;;;15.21;49.88
45040;BME280;30778;53.574;7.770;2023-09-08T02:52:17;101894.34;;;15.26;49.69
45040;BME280;30778;53.574;7.770;2023-09-08T02:54:45;101898.28;;;15.15;49.97
45040;BME280;30778;53.574;7.770;2023-09-08T02:57:10;101888.16;;;15.06;50.40
45040;BME280;30778;53.574;7.770;2023-09-08T02:59:36;101882.88;;;15.06;50.37
45040;BME280;30778;53.574;7.770;2023-09-08T03:02:01;101882.47;;;15.15;50.05
45040;BME280;30778;53.574;7.770;2023-09-08T03:04:27;101885.06;;;15.17;50.08
45040;BME280;30778;53.574;7.770;2023-09-08T03:06:52;101879.50;;;15.03;50.19
45040;BME280;30778;53.574;7.770;2023-09-08T03:09:19;101882.53;;;14.93;50.39
45040;BME280;30778;53.574;7.770;2023-09-08T03:11:44;101882.69;;;14.90;50.45
45040;BME280;30778;53.574;7.770;2023-09-08T03:14:10;101879.38;;;14.85;50.76
45040;BME280;30778;53.574;7.770;2023-09-08T03:16:35;101876.13;;;14.79;50.99
45040;BME280;30778;53.574;7.770;2023-09-08T03:19:02;101877.31;;;14.71;51.15
45040;BME280;30778;53.574;7.770;2023-09-08T03:21:28;101874.84;;;14.68;51.10
45040;BME280;30778;53.574;7.770;2023-09-08T03:23:54;101875.97;;;14.61;51.03
45040;BME280;30778;53.574;7.770;2023-09-08T03:26:21;101870.47;;;14.67;51.57
45040;BME280;30778;53.574;7.770;2023-09-08T03:28:46;101873.00;;;14.70;51.68
45040;BME280;30778;53.574;7.770;2023-09-08T03:31:12;101863.25;;;14.72;51.43
45040;BME280;30778;53.574;7.770;2023-09-08T03:33:37;101866.00;;;14.69;51.65
45040;BME280;30778;53.574;7.770;2023-09-08T03:36:06;101865.91;;;14.72;51.47
45040;BME280;30778;53.574;7.770;2023-09-08T03:38:32;101859.84;;;14.70;51.44
45040;BME280;30778;53.574;7.770;2023-09-08T03:40:58;101859.16;;;14.65;51.82
45040;BME280;30778;53.574;7.770;2023-09-08T03:43:25;101860.69;;;14.71;51.61
45040;BME280;30778;53.574;7.770;2023-09-08T03:45:50;101856.53;;;14.65;52.11
45040;BME280;30778;53.574;7.770;2023-09-08T03:48:16;101858.31;;;14.65;52.19
45040;BME280;30778;53.574;7.770;2023-09-08T03:50:41;101852.13;;;14.66;52.27
45040;BME280;30778;53.574;7.770;2023-09-08T03:53:11;101856.22;;;14.73;52.09
45040;BME280;30778;53.574;7.770;2023-09-08T03:55:36;101861.41;;;14.74;51.61
45040;BME280;30778;53.574;7.770;2023-09-08T03:58:02;101858.50;;;14.81;51.38
45040;BME280;30778;53.574;7.770;2023-09-08T04:00:28;101857.63;;;14.82;51.38
45040;BME280;30778;53.574;7.770;2023-09-08T04:02:54;101855.03;;;14.80;51.16
45040;BME280;30778;53.574;7.770;2023-09-08T04:05:20;101857.06;;;14.73;51.24
45040;BME280;30778;53.574;7.770;2023-09-08T04:07:46;101853.59;;;14.73;51.42
45040;BME280;30778;53.574;7.770;2023-09-08T04:10:12;101853.34;;;14.79;51.08
45040;BME280;30778;53.574;7.770;2023-09-08T04:12:39;101856.66;;;14.62;51.38
45040;BME280;30778;53.574;7.770;2023-09-08T04:15:05;101852.63;;;14.53;51.76
45040;BME280;30778;53.574;7.770;2023-09-08T04:17:31;101843.03;;;14.52;51.74
45040;BME280;30778;53.574;7.770;2023-09-08T04:19:57;101847.97;;;14.60;51.05
45040;BME280;30778;53.574;7.770;2023-09-08T04:22:23;101842.72;;;14.60;50.98
45040;BME280;30778;53.574;7.770;2023-09-08T04:24:49;101845.09;;;14.66;50.87
45040;BME280;30778;53.574;7.770;2023-09-08T04:27:15;101847.38;;;14.53;51.15
45040;BME280;30778;53.574;7.770;2023-09-08T04:29:40;101840.03;;;14.40;51.23
45040;BME280;30778;53.574;7.770;2023-09-08T04:32:06;101839.28;;;14.36;51.54
45040;BME280;30778;53.574;7.770;2023-09-08T04:34:39;101835.84;;;14.34;51.74
45040;BME280;30778;53.574;7.770;2023-09-08T04:37:05;101834.88;;;14.36;51.51
45040;BME280;30778;53.574;7.770;2023-09-08T04:39:31;101835.66;;;14.39;51.40
45040;BME280;30778;53.574;7.770;2023-09-08T04:41:57;101833.91;;;14.39;51.24
45040;BME280;30778;53.574;7.770;2023-09-08T04:44:22;101836.13;;;14.28;51.66
45040;BME280;30778;53.574;7.770;2023-09-08T04:46:48;101839.91;;;14.21;51.72
45040;BME280;30778;53.574;7.770;2023-09-08T04:49:14;101837.97;;;14.26;51.59
45040;BME280;30778;53.574;7.770;2023-09-08T04:51:39;101848.41;;;14.27;51.63
45040;BME280;30778;53.574;7.770;2023-09-08T04:54:05;101841.88;;;14.15;52.07
45040;BME280;30778;53.574;7.770;2023-09-08T04:56:31;101843.13;;;14.05;52.06
45040;BME280;30778;53.574;7.770;2023-09-08T04:58:57;101842.22;;;14.06;52.18
45040;BME280;30778;53.574;7.770;2023-09-08T05:01:29;101846.75;;;14.03;52.26
45040;BME280;30778;53.574;7.770;2023-09-08T05:03:59;101848.47;;;14.04;52.38
45040;BME280;30778;53.574;7.770;2023-09-08T05:06:26;101847.50;;;14.06;52.22
45040;BME280;30778;53.574;7.770;2023-09-08T05:08:54;101842.47;;;14.00;52.55
45040;BME280;30778;53.574;7.770;2023-09-08T05:11:22;101836.97;;;14.06;52.28
45040;BME280;30778;53.574;7.770;2023-09-08T05:13:47;101844.69;;;14.11;52.38
45040;BME280;30778;53.574;7.770;2023-09-08T05:16:13;101841.56;;;14.23;51.70
45040;BME280;30778;53.574;7.770;2023-09-08T05:18:44;101850.53;;;14.40;51.19
45040;BME280;30778;53.574;7.770;2023-09-08T05:21:10;101843.50;;;14.40;50.89
45040;BME280;30778;53.574;7.770;2023-09-08T05:23:35;101843.91;;;14.53;50.78
45040;BME280;30778;53.574;7.770;2023-09-08T05:26:01;101843.94;;;14.51;50.84
45040;BME280;30778;53.574;7.770;2023-09-08T05:28:27;101844.69;;;14.55;50.63
45040;BME280;30778;53.574;7.770;2023-09-08T05:30:57;101845.19;;;14.63;50.55
45040;BME280;30778;53.574;7.770;2023-09-08T05:33:26;101846.69;;;14.70;50.21
45040;BME280;30778;53.574;7.770;2023-09-08T05:35:52;101842.97;;;14.74;49.98
45040;BME280;30778;53.574;7.770;2023-09-08T05:38:18;101849.38;;;14.89;49.59
45040;BME280;30778;53.574;7.770;2023-09-08T05:40:46;101845.50;;;14.98;49.25
45040;BME280;30778;53.574;7.770;2023-09-08T05:43:14;101839.19;;;15.02;49.47
45040;BME280;30778;53.574;7.770;2023-09-08T05:45:40;101838.91;;;15.08;49.40
45040;BME280;30778;53.574;7.770;2023-09-08T05:48:06;101835.72;;;15.21;48.90
45040;BME280;30778;53.574;7.770;2023-09-08T05:50:34;101833.91;;;15.23;48.58
45040;BME280;30778;53.574;7.770;2023-09-08T05:52:59;101852.34;;;15.23;49.04
45040;BME280;30778;53.574;7.770;2023-09-08T05:55:25;101843.25;;;15.30;48.73
45040;BME280;30778;53.574;7.770;2023-09-08T05:57:50;101842.19;;;15.34;48.83
45040;BME280;30778;53.574;7.770;2023-09-08T06:00:17;101833.09;;;15.41;48.55
45040;BME280;30778;53.574;7.770;2023-09-08T06:02:47;101841.56;;;15.86;47.60
45040;BME280;30778;53.574;7.770;2023-09-08T06:05:14;101835.91;;;17.18;43.97
45040;BME280;30778;53.574;7.770;2023-09-08T06:07:40;101844.09;;;19.17;39.78
45040;BME280;30778;53.574;7.770;2023-09-08T06:10:10;101830.38;;;21.26;37.22
45040;BME280;30778;53.574;7.770;2023-09-08T06:12:38;101837.53;;;22.72;33.30
45040;BME280;30778;53.574;7.770;2023-09-08T06:15:05;101834.22;;;23.37;31.97
45040;BME280;30778;53.574;7.770;2023-09-08T06:17:37;101830.31;;;24.61;30.81
45040;BME280;30778;53.574;7.770;2023-09-08T06:20:03;101823.00;;;25.15;28.86
45040;BME280;30778;53.574;7.770;2023-09-08T06:22:32;101830.75;;;24.87;30.25
45040;BME280;30778;53.574;7.770;2023-09-08T06:25:02;101830.78;;;25.18;29.27
45040;BME280;30778;53.574;7.770;2023-09-08T06:27:27;101826.69;;;25.14;28.94
45040;BME280;30778;53.574;7.770;2023-09-08T06:29:55;101821.78;;;25.59;28.35
45040;BME280;30778;53.574;7.770;2023-09-08T06:32:24;101831.13;;;25.03;28.76
45040;BME280;30778;53.574;7.770;2023-09-08T06:34:57;101833.94;;;24.81;29.79
45040;BME280;30778;53.574;7.770;2023-09-08T06:37:25;101828.16;;;24.76;29.90
45040;BME280;30778;53.574;7.770;2023-09-08T06:39:54;101829.69;;;24.99;29.76
45040;BME280;30778;53.574;7.770;2023-09-08T06:42:25;101831.97;;;26.53;27.74
45040;BME280;30778;53.574;7.770;2023-09-08T06:45:02;101832.41;;;26.39;27.71
45040;BME280;30778;53.574;7.770;2023-09-08T06:47:28;101831.72;;;26.37;28.01
45040;BME280;30778;53.574;7.770;2023-09-08T06:49:56;101841.41;;;26.77;26.53
45040;BME280;30778;53.574;7.770;2023-09-08T06:52:25;101832.66;;;26.55;26.93
45040;BME280;30778;53.574;7.770;2023-09-08T06:54:50;101831.63;;;27.96;26.65
45040;BME280;30778;53.574;7.770;2023-09-08T06:57:18;101831.09;;;28.10;25.02
45040;BME280;30778;53.574;7.770;2023-09-08T06:59:46;101832.03;;;26.90;27.39
45040;BME280;30778;53.574;7.770;2023-09-08T07:02:15;101824.41;;;27.33;25.98
45040;BME280;30778;53.574;7.770;2023-09-08T07:04:41;101826.03;;;27.71;26.17
45040;BME280;30778;53.574;7.770;2023-09-08T07:07:09;101827.88;;;27.71;25.92
45040;BME280;30778;53.574;7.770;2023-09-08T07:09:37;101827.75;;;27.07;26.76
45040;BME280;30778;53.574;7.770;2023-09-08T07:12:30;101828.94;;;27.78;26.38
45040;BME280;30778;53.574;7.770;2023-09-08T07:15:09;101829.72;;;27.61;25.86
45040;BME280;30778;53.574;7.770;2023-09-08T07:17:38;101830.78;;;27.96;25.87
45040;BME280;30778;53.574;7.770;2023-09-08T07:20:04;101825.25;;;28.33;24.78
45040;BME280;30778;53.574;7.770;2023-09-08T07:22:31;101818.47;;;28.47;25.04
45040;BME280;30778;53.574;7.770;2023-09-08T07:24:56;101828.97;;;28.14;25.32
45040;BME280;30778;53.574;7.770;2023-09-08T07:27:24;101829.75;;;27.33;26.09
45040;BME280;30778;53.574;7.770;2023-09-08T07:29:55;101833.41;;;27.60;25.70
45040;BME280;30778;53.574;7.770;2023-09-08T07:32:21;101827.88;;;28.07;25.46
45040;BME280;30778;53.574;7.770;2023-09-08T07:34:50;101834.28;;;28.50;25.18
45040;BME280;30778;53.574;7.770;2023-09-08T07:37:25;101834.94;;;28.96;24.92
45040;BME280;30778;53.574;7.770;2023-09-08T07:39:51;101832.25;;;29.30;23.93
45040;BME280;30778;53.574;7.770;2023-09-08T07:42:20;101835.50;;;29.42;23.95
45040;BME280;30778;53.574;7.770;2023-09-08T07:44:45;101835.28;;;30.35;22.97
45040;BME280;30778;53.574;7.770;2023-09-08T07:47:11;101838.00;;;30.27;23.07
45040;BME280;30778;53.574;7.770;2023-09-08T07:49:39;101826.50;;;29.76;23.72
45040;BME280;30778;53.574;7.770;2023-09-08T07:52:04;101822.72;;;29.10;24.68
45040;BME280;30778;53.574;7.770;2023-09-08T07:54:32;101815.44;;;30.12;23.68
45040;BME280;30778;53.574;7.770;2023-09-08T07:56:58;101813.34;;;29.65;24.03
45040;BME280;30778;53.574;7.770;2023-09-08T07:59:26;101819.91;;;29.11;24.70
45040;BME280;30778;53.574;7.770;2023-09-08T08:01:51;101816.81;;;29.57;24.09
45040;BME280;30778;53.574;7.770;2023-09-08T08:04:17;101815.72;;;29.60;23.86
45040;BME280;30778;53.574;7.770;2023-09-08T08:06:42;101815.41;;;29.95;24.20
45040;BME280;30778;53.574;7.770;2023-09-08T08:09:10;101818.44;;;30.42;23.79
45040;BME280;30778;53.574;7.770;2023-09-08T08:11:38;101820.97;;;30.43;23.32
45040;BME280;30778;53.574;7.770;2023-09-08T08:14:06;101821.13;;;30.66;22.76
45040;BME280;30778;53.574;7.770;2023-09-08T08:16:31;101820.75;;;30.77;22.73
45040;BME280;30778;53.574;7.770;2023-09-08T08:18:56;101821.34;;;31.52;23.17
45040;BME280;30778;53.574;7.770;2023-09-08T08:21:25;101822.75;;;31.62;22.07
45040;BME280;30778;53.574;7.770;2023-09-08T08:23:50;101817.25;;;32.93;21.54
45040;BME280;30778;53.574;7.770;2023-09-08T08:26:21;101814.31;;;32.94;20.77
45040;BME280;30778;53.574;7.770;2023-09-08T08:28:46;101813.34;;;32.28;21.67
45040;BME280;30778;53.574;7.770;2023-09-08T08:31:12;101811.75;;;31.87;21.83
45040;BME280;30778;53.574;7.770;2023-09-08T08:33:40;101816.94;;;31.74;21.85
45040;BME280;30778;53.574;7.770;2023-09-08T08:36:06;101812.38;;;30.56;23.79
45040;BME280;30778;53.574;7.770;2023-09-08T08:38:32;101807.97;;;30.71;23.99
45040;BME280;30778;53.574;7.770;2023-09-08T08:41:03;101812.88;;;30.51;24.18
45040;BME280;30778;53.574;7.770;2023-09-08T08:43:31;101813.72;;;29.94;24.65
45040;BME280;30778;53.574;7.770;2023-09-08T08:46:00;101814.19;;;29.14;26.13
45040;BME280;30778;53.574;7.770;2023-09-08T08:48:27;101813.94;;;29.00;25.87
45040;BME280;30778;53.574;7.770;2023-09-08T08:50:56;101815.72;;;28.39;26.69
45040;BME280;30778;53.574;7.770;2023-09-08T08:53:25;101813.03;;;28.39;27.29
45040;BME280;30778;53.574;7.770;2023-09-08T08:55:55;101804.28;;;28.37;27.48
45040;BME280;30778;53.574;7.770;2023-09-08T08:58:39;101807.16;;;27.63;28.84
45040;BME280;30778;53.574;7.770;2023-09-08T09:01:15;101803.97;;;27.22;29.17
45040;BME280;30778;53.574;7.770;2023-09-08T09:03:45;101806.56;;;27.14;30.07
45040;BME280;30778;53.574;7.770;2023-09-08T09:06:17;101806.00;;;27.10;29.26
45040;BME280;30778;53.574;7.770;2023-09-08T09:08:43;101812.88;;;26.76;30.46
45040;BME280;30778;53.574;7.770;2023-09-08T09:11:09;101808.09;;;27.07;30.12
45040;BME280;30778;53.574;7.770;2023-09-08T09:13:46;101813.31;;;27.46;29.92
45040;BME280;30778;53.574;7.770;2023-09-08T09:16:22;101807.22;;;27.71;29.73
45040;BME280;30778;53.574;7.770;2023-09-08T09:18:58;101811.16;;;27.49;29.44
45040;BME280;30778;53.574;7.770;2023-09-08T09:21:41;101817.03;;;27.35;30.31
45040;BME280;30778;53.574;7.770;2023-09-08T09:24:15;101810.84;;;27.80;29.40
45040;BME280;30778;53.574;7.770;2023-09-08T09:26:46;101815.13;;;27.91;29.20
45040;BME280;30778;53.574;7.770;2023-09-08T09:29:17;101812.44;;;27.91;29.50
45040;BME280;30778;53.574;7.770;2023-09-08T09:31:53;101817.44;;;27.68;30.05
45040;BME280;30778;53.574;7.770;2023-09-08T09:34:24;101817.69;;;27.92;29.78
45040;BME280;30778;53.574;7.770;2023-09-08T09:36:51;101815.47;;;27.60;29.72
45040;BME280;30778;53.574;7.770;2023-09-08T09:39:20;101819.91;;;27.79;29.63
45040;BME280;30778;53.574;7.770;2023-09-08T09:41:47;101810.09;;;28.24;28.82
45040;BME280;30778;53.574;7.770;2023-09-08T09:44:15;101813.97;;;28.29;29.39
45040;BME280;30778;53.574;7.770;2023-09-08T09:46:46;101808.31;;;28.85;27.73
45040;BME280;30778;53.574;7.770;2023-09-08T09:49:17;101808.31;;;29.19;28.38
45040;BME280;30778;53.574;7.770;2023-09-08T09:51:50;101812.75;;;28.68;29.34
45040;BME280;30778;53.574;7.770;2023-09-08T09:54:23;101804.66;;;28.68;28.57
45040;BME280;30778;53.574;7.770;2023-09-08T09:56:54;101805.91;;;28.73;28.45
45040;BME280;30778;53.574;7.770;2023-09-08T09:59:25;101804.97;;;28.39;28.40
45040;BME280;30778;53.574;7.770;2023-09-08T10:01:57;101808.38;;;28.05;29.25
45040;BME280;30778;53.574;7.770;2023-09-08T10:04:33;101804.06;;;28.30;29.30
45040;BME280;30778;53.574;7.770;2023-09-08T10:07:01;101800.88;;;27.90;29.40
45040;BME280;30778;53.574;7.770;2023-09-08T10:09:27;101805.31;;;28.00;30.01
45040;BME280;30778;53.574;7.770;2023-09-08T10:11:54;101804.00;;;28.22;30.75
45040;BME280;30778;53.574;7.770;2023-09-08T10:14:21;101801.84;;;28.69;29.77
45040;BME280;30778;53.574;7.770;2023-09-08T10:16:49;101802.66;;;28.44;28.99
45040;BME280;30778;53.574;7.770;2023-09-08T10:19:17;101799.72;;;28.55;29.08
45040;BME280;30778;53.574;7.770;2023-09-08T10:21:47;101788.22;;;28.45;29.14
45040;BME280;30778;53.574;7.770;2023-09-08T10:24:15;101793.28;;;29.08;29.68
45040;BME280;30778;53.574;7.770;2023-09-08T10:26:47;101788.69;;;29.01;28.43
45040;BME280;30778;53.574;7.770;2023-09-08T10:29:17;101777.78;;;28.42;28.99
45040;BME280;30778;53.574;7.770;2023-09-08T10:31:44;101781.69;;;28.73;30.23
45040;BME280;30778;53.574;7.770;2023-09-08T10:34:10;101775.09;;;29.02;28.77
45040;BME280;30778;53.574;7.770;2023-09-08T10:36:36;101777.78;;;29.02;29.03
45040;BME280;30778;53.574;7.770;2023-09-08T10:39:32;101773.78;;;29.06;29.74
45040;BME280;30778;53.574;7.770;2023-09-08T10:45:15;101770.59;;;28.77;29.16
45040;BME280;30778;53.574;7.770;2023-09-08T10:47:32;101770.13;;;29.15;29.00
45040;BME280;30778;53.574;7.770;2023-09-08T10:49:59;101769.84;;;29.35;28.17
45040;BME280;30778;53.574;7.770;2023-09-08T10:52:25;101775.53;;;29.32;30.05
45040;BME280;30778;53.574;7.770;2023-09-08T10:54:52;101772.97;;;29.73;28.72
45040;BME280;30778;53.574;7.770;2023-09-08T10:57:21;101770.91;;;29.75;28.30
45040;BME280;30778;53.574;7.770;2023-09-08T10:59:57;101768.94;;;29.93;28.61
45040;BME280;30778;53.574;7.770;2023-09-08T11:02:38;101780.97;;;29.40;28.70
45040;BME280;30778;53.574;7.770;2023-09-08T11:05:10;101780.25;;;29.22;28.55
45040;BME280;30778;53.574;7.770;2023-09-08T11:07:37;101779.06;;;29.32;29.51
45040;BME280;30778;53.574;7.770;2023-09-08T11:10:04;101775.25;;;29.35;28.88
45040;BME280;30778;53.574;7.770;2023-09-08T11:12:30;101782.84;;;29.56;28.96
45040;BME280;30778;53.574;7.770;2023-09-08T11:14:58;101772.28;;;29.79;28.43
45040;BME280;30778;53.574;7.770;2023-09-08T11:17:27;101769.91;;;29.68;28.30
45040;BME280;30778;53.574;7.770;2023-09-08T11:19:53;101766.72;;;30.05;28.09
45040;BME280;30778;53.574;7.770;2023-09-08T11:22:22;101760.16;;;29.91;27.56
45040;BME280;30778;53.574;7.770;2023-09-08T11:24:49;101764.88;;;29.97;28.21
45040;BME280;30778;53.574;7.770;2023-09-08T11:27:14;101761.31;;;29.97;28.60
45040;BME280;30778;53.574;7.770;2023-09-08T11:29:40;101760.50;;;30.13;28.40
45040;BME280;30778;53.574;7.770;2023-09-08T11:32:09;101747.38;;;29.69;28.85
45040;BME280;30778;53.574;7.770;2023-09-08T11:34:35;101752.56;;;29.70;28.08
45040;BME280;30778;53.574;7.770;2023-09-08T11:37:13;101751.03;;;29.51;29.32
45040;BME280;30778;53.574;7.770;2023-09-08T11:39:42;101751.56;;;29.63;28.80
45040;BME280;30778;53.574;7.770;2023-09-08T11:42:08;101743.00;;;29.84;28.05
45040;BME280;30778;53.574;7.770;2023-09-08T11:44:35;101748.69;;;30.30;27.33
45040;BME280;30778;53.574;7.770;2023-09-08T11:47:03;101751.50;;;30.62;27.68
45040;BME280;30778;53.574;7.770;2023-09-08T11:49:36;101745.31;;;30.28;27.78
45040;BME280;30778;53.574;7.770;2023-09-08T11:52:03;101743.47;;;29.80;29.07
45040;BME280;30778;53.574;7.770;2023-09-08T11:54:31;101742.81;;;29.69;28.75
45040;BME280;30778;53.574;7.770;2023-09-08T11:56:59;101744.31;;;30.05;27.91
45040;BME280;30778;53.574;7.770;2023-09-08T11:59:28;101739.59;;;30.23;27.96
45040;BME280;30778;53.574;7.770;2023-09-08T12:01:56;101744.16;;;29.98;28.81
45040;BME280;30778;53.574;7.770;2023-09-08T12:04:22;101739.63;;;29.82;30.13
45040;BME280;30778;53.574;7.770;2023-09-08T12:06:48;101730.53;;;29.83;28.07
45040;BME280;30778;53.574;7.770;2023-09-08T12:09:14;101739.91;;;30.45;27.80
45040;BME280;30778;53.574;7.770;2023-09-08T12:11:40;101732.47;;;30.55;26.67
45040;BME280;30778;53.574;7.770;2023-09-08T12:14:10;101723.53;;;30.46;27.39
45040;BME280;30778;53.574;7.770;2023-09-08T12:16:36;101720.16;;;30.52;28.05
45040;BME280;30778;53.574;7.770;2023-09-08T12:19:02;101723.00;;;30.67;27.33
45040;BME280;30778;53.574;7.770;2023-09-08T12:21:28;101724.34;;;30.63;28.48
45040;BME280;30778;53.574;7.770;2023-09-08T12:23:53;101722.50;;;31.03;27.32
45040;BME280;30778;53.574;7.770;2023-09-08T12:26:20;101720.25;;;31.15;27.01
45040;BME280;30778;53.574;7.770;2023-09-08T12:28:46;101729.34;;;30.83;27.47
45040;BME280;30778;53.574;7.770;2023-09-08T12:31:17;101722.16;;;31.29;26.44
45040;BME280;30778;53.574;7.770;2023-09-08T12:33:43;101723.59;;;31.40;26.65
45040;BME280;30778;53.574;7.770;2023-09-08T12:36:13;101721.19;;;30.91;26.47
45040;BME280;30778;53.574;7.770;2023-09-08T12:38:40;101715.25;;;30.95;27.27
45040;BME280;30778;53.574;7.770;2023-09-08T12:41:06;101720.31;;;30.59;27.41
45040;BME280;30778;53.574;7.770;2023-09-08T12:43:32;101715.22;;;30.72;27.12
45040;BME280;30778;53.574;7.770;2023-09-08T12:45:57;101713.25;;;30.42;26.75
45040;BME280;30778;53.574;7.770;2023-09-08T12:48:24;101716.16;;;30.40;27.33
45040;BME280;30778;53.574;7.770;2023-09-08T12:50:50;101708.84;;;31.28;26.84
45040;BME280;30778;53.574;7.770;2023-09-08T12:53:16;101709.75;;;31.20;25.73
45040;BME280;30778;53.574;7.770;2023-09-08T12:55:46;101707.44;;;31.09;26.25
45040;BME280;30778;53.574;7.770;2023-09-08T12:58:12;101716.53;;;31.39;27.27
45040;BME280;30778;53.574;7.770;2023-09-08T13:00:38;101703.09;;;31.31;26.95